sensor_id;sensor_type;location;lat;lon;timestamp;P1;durP1;ratioP1;P2;durP2;ratioP2
13807;SDS011;40769;51.512;5.494;2023-02-18T00:00:38;21.75;;;19.75;;
13807;SDS011;40769;51.512;5.494;2023-02-18T00:03:03;21.58;;;19.58;;
13807;SDS011;40769;51.512;5.494;2023-02-18T00:05:29;21.92;;;19.77;;
13807;SDS011;40769;51.512;5.494;2023-02-18T00:07:54;18.17;;;16.48;;
13807;SDS011;40769;51.512;5.494;2023-02-18T00:10:20;20.30;;;18.30;;
13807;SDS011;40769;51.512;5.494;2023-02-18T00:12:45;21.42;;;19.42;;
13807;SDS011;40769;51.512;5.494;2023-02-18T00:15:11;20.95;;;18.95;;
13807;SDS011;40769;51.512;5.494;2023-02-18T00:17:37;18.15;;;16.55;;
13807;SDS011;40769;51.512;5.494;2023-02-18T00:20:03;13.07;;;11.88;;
13807;SDS011;40769;51.512;5.494;2023-02-18T00:22:30;14.35;;;12.95;;
13807;SDS011;40769;51.512;5.494;2023-02-18T00:24:56;17.52;;;15.85;;
13807;SDS011;40769;51.512;5.494;2023-02-18T00:27:21;19.42;;;17.63;;
13807;SDS011;40769;51.512;5.494;2023-02-18T00:29:47;20.73;;;18.73;;
13807;SDS011;40769;51.512;5.494;2023-02-18T00:32:13;21.88;;;19.73;;
13807;SDS011;40769;51.512;5.494;2023-02-18T00:34:38;19.30;;;17.40;;
13807;SDS011;40769;51.512;5.494;2023-02-18T00:37:04;18.60;;;16.73;;
13807;SDS011;40769;51.512;5.494;2023-02-18T00:39:29;20.25;;;18.27;;
13807;SDS011;40769;51.512;5.494;2023-02-18T00:41:55;19.80;;;17.90;;
13807;SDS011;40769;51.512;5.494;2023-02-18T00:44:21;20.15;;;18.25;;
13807;SDS011;40769;51.512;5.494;2023-02-18T00:46:46;19.58;;;17.77;;
13807;SDS011;40769;51.512;5.494;2023-02-18T00:49:13;19.30;;;17.52;;
13807;SDS011;40769;51.512;5.494;2023-02-18T00:51:39;21.40;;;19.23;;
13807;SDS011;40769;51.512;5.494;2023-02-18T00:54:05;19.67;;;17.80;;
13807;SDS011;40769;51.512;5.494;2023-02-18T00:56:31;15.82;;;14.25;;
13807;SDS011;40769;51.512;5.494;2023-02-18T00:58:57;18.42;;;16.75;;
13807;SDS011;40769;51.512;5.494;2023-02-18T01:01:22;18.38;;;16.48;;
13807;SDS011;40769;51.512;5.494;2023-02-18T01:03:48;17.08;;;15.38;;
13807;SDS011;40769;51.512;5.494;2023-02-18T01:06:14;17.73;;;16.00;;
13807;SDS011;40769;51.512;5.494;2023-02-18T01:08:40;17.05;;;15.25;;
13807;SDS011;40769;51.512;5.494;2023-02-18T01:11:07;17.20;;;15.48;;
13807;SDS011;40769;51.512;5.494;2023-02-18T01:13:34;16.00;;;14.40;;
13807;SDS011;40769;51.512;5.494;2023-02-18T01:16:00;13.40;;;12.10;;
13807;SDS011;40769;51.512;5.494;2023-02-18T01:18:26;13.18;;;11.88;;
13807;SDS011;40769;51.512;5.494;2023-02-18T01:20:52;12.85;;;11.65;;
13807;SDS011;40769;51.512;5.494;2023-02-18T01:23:18;12.73;;;11.50;;
13807;SDS011;40769;51.512;5.494;2023-02-18T01:25:43;14.38;;;12.98;;
13807;SDS011;40769;51.512;5.494;2023-02-18T01:28:10;13.02;;;11.82;;
13807;SDS011;40769;51.512;5.494;2023-02-18T01:30:37;12.25;;;11.05;;
13807;SDS011;40769;51.512;5.494;2023-02-18T01:33:03;12.05;;;10.50;;
13807;SDS011;40769;51.512;5.494;2023-02-18T01:35:29;12.25;;;11.15;;
13807;SDS011;40769;51.512;5.494;2023-02-18T01:37:55;11.93;;;10.82;;
13807;SDS011;40769;51.512;5.494;2023-02-18T01:40:22;12.82;;;11.60;;
13807;SDS011;40769;51.512;5.494;2023-02-18T01:42:50;12.32;;;11.23;;
13807;SDS011;40769;51.512;5.494;2023-02-18T01:48:08;11.10;;;10.00;;
13807;SDS011;40769;51.512;5.494;2023-02-18T01:50:41;13.07;;;11.85;;
13807;SDS011;40769;51.512;5.494;2023-02-18T01:53:10;9.48;;;8.68;;
13807;SDS011;40769;51.512;5.494;2023-02-18T01:55:40;11.32;;;10.20;;
13807;SDS011;40769;51.512;5.494;2023-02-18T01:58:06;10.40;;;9.50;;
13807;SDS011;40769;51.512;5.494;2023-02-18T02:00:32;11.85;;;10.75;;
13807;SDS011;40769;51.512;5.494;2023-02-18T02:02:58;13.43;;;12.15;;
13807;SDS011;40769;51.512;5.494;2023-02-18T02:05:23;12.60;;;11.40;;
13807;SDS011;40769;51.512;5.494;2023-02-18T02:07:54;13.30;;;12.00;;
13807;SDS011;40769;51.512;5.494;2023-02-18T02:10:19;12.95;;;11.77;;
13807;SDS011;40769;51.512;5.494;2023-02-18T02:15:57;12.52;;;11.25;;
13807;SDS011;40769;51.512;5.494;2023-02-18T02:32:31;12.68;;;11.57;;
13807;SDS011;40769;51.512;5.494;2023-02-18T02:38:08;13.60;;;12.30;;
13807;SDS011;40769;51.512;5.494;2023-02-18T02:40:45;12.65;;;11.45;;
13807;SDS011;40769;51.512;5.494;2023-02-18T02:43:33;13.20;;;12.00;;
13807;SDS011;40769;51.512;5.494;2023-02-18T02:46:26;11.82;;;10.73;;
13807;SDS011;40769;51.512;5.494;2023-02-18T02:54:37;9.32;;;8.55;;
13807;SDS011;40769;51.512;5.494;2023-02-18T02:59:38;11.10;;;10.10;;
13807;SDS011;40769;51.512;5.494;2023-02-18T03:10:35;9.43;;;8.63;;
13807;SDS011;40769;51.512;5.494;2023-02-18T03:13:17;9.43;;;8.63;;
13807;SDS011;40769;51.512;5.494;2023-02-18T03:18:47;8.05;;;7.43;;
13807;SDS011;40769;51.512;5.494;2023-02-18T03:21:43;7.07;;;6.38;;
13807;SDS011;40769;51.512;5.494;2023-02-18T03:24:15;6.78;;;6.20;;
13807;SDS011;40769;51.512;5.494;2023-02-18T03:26:49;6.10;;;5.60;;
13807;SDS011;40769;51.512;5.494;2023-02-18T03:29:18;6.13;;;5.57;;
13807;SDS011;40769;51.512;5.494;2023-02-18T03:31:45;5.68;;;5.28;;
13807;SDS011;40769;51.512;5.494;2023-02-18T03:34:17;5.93;;;5.43;;
13807;SDS011;40769;51.512;5.494;2023-02-18T03:36:49;5.20;;;4.80;;
13807;SDS011;40769;51.512;5.494;2023-02-18T03:39:16;5.20;;;4.78;;
13807;SDS011;40769;51.512;5.494;2023-02-18T03:41:43;5.13;;;4.72;;
13807;SDS011;40769;51.512;5.494;2023-02-18T03:44:09;5.07;;;4.68;;
13807;SDS011;40769;51.512;5.494;2023-02-18T03:46:36;5.20;;;4.80;;
13807;SDS011;40769;51.512;5.494;2023-02-18T03:49:03;5.07;;;4.68;;
13807;SDS011;40769;51.512;5.494;2023-02-18T03:51:29;4.50;;;4.10;;
13807;SDS011;40769;51.512;5.494;2023-02-18T03:53:55;4.18;;;3.88;;
13807;SDS011;40769;51.512;5.494;2023-02-18T03:56:21;5.15;;;4.75;;
13807;SDS011;40769;51.512;5.494;2023-02-18T03:58:47;4.07;;;3.78;;
13807;SDS011;40769;51.512;5.494;2023-02-18T04:01:12;4.30;;;4.00;;
13807;SDS011;40769;51.512;5.494;2023-02-18T04:03:38;3.58;;;3.28;;
13807;SDS011;40769;51.512;5.494;2023-02-18T04:06:04;3.95;;;3.65;;
13807;SDS011;40769;51.512;5.494;2023-02-18T04:08:30;3.30;;;3.00;;
13807;SDS011;40769;51.512;5.494;2023-02-18T04:10:56;2.97;;;2.75;;
13807;SDS011;40769;51.512;5.494;2023-02-18T04:13:21;3.45;;;3.15;;
13807;SDS011;40769;51.512;5.494;2023-02-18T04:15:50;3.15;;;2.85;;
13807;SDS011;40769;51.512;5.494;2023-02-18T04:18:16;3.25;;;2.95;;
13807;SDS011;40769;51.512;5.494;2023-02-18T04:20:42;2.88;;;2.67;;
13807;SDS011;40769;51.512;5.494;2023-02-18T04:23:08;2.70;;;2.50;;
13807;SDS011;40769;51.512;5.494;2023-02-18T04:25:34;2.42;;;2.22;;
13807;SDS011;40769;51.512;5.494;2023-02-18T04:27:59;2.42;;;2.22;;
13807;SDS011;40769;51.512;5.494;2023-02-18T04:30:25;2.05;;;1.88;;
13807;SDS011;40769;51.512;5.494;2023-02-18T04:32:51;2.25;;;2.05;;
13807;SDS011;40769;51.512;5.494;2023-02-18T04:35:17;1.80;;;1.70;;
13807;SDS011;40769;51.512;5.494;2023-02-18T04:37:42;1.67;;;1.58;;
13807;SDS011;40769;51.512;5.494;2023-02-18T04:40:09;1.98;;;1.88;;
13807;SDS011;40769;51.512;5.494;2023-02-18T04:42:35;1.90;;;1.80;;
13807;SDS011;40769;51.512;5.494;2023-02-18T04:45:00;1.63;;;1.52;;
13807;SDS011;40769;51.512;5.494;2023-02-18T04:47:26;1.85;;;1.75;;
13807;SDS011;40769;51.512;5.494;2023-02-18T04:49:52;1.73;;;1.60;;
13807;SDS011;40769;51.512;5.494;2023-02-18T04:52:17;1.58;;;1.48;;
13807;SDS011;40769;51.512;5.494;2023-02-18T04:54:43;1.65;;;1.55;;
13807;SDS011;40769;51.512;5.494;2023-02-18T04:57:09;1.55;;;1.45;;
13807;SDS011;40769;51.512;5.494;2023-02-18T04:59:35;1.63;;;1.52;;
13807;SDS011;40769;51.512;5.494;2023-02-18T05:02:00;1.80;;;1.70;;
13807;SDS011;40769;51.512;5.494;2023-02-18T05:04:26;1.40;;;1.30;;
13807;SDS011;40769;51.512;5.494;2023-02-18T05:06:52;1.50;;;1.40;;
13807;SDS011;40769;51.512;5.494;2023-02-18T05:09:17;1.55;;;1.45;;
13807;SDS011;40769;51.512;5.494;2023-02-18T05:11:44;1.50;;;1.40;;
13807;SDS011;40769;51.512;5.494;2023-02-18T05:14:11;1.70;;;1.60;;
13807;SDS011;40769;51.512;5.494;2023-02-18T05:16:37;2.10;;;1.90;;
13807;SDS011;40769;51.512;5.494;2023-02-18T05:19:03;1.67;;;1.58;;
13807;SDS011;40769;51.512;5.494;2023-02-18T05:21:29;1.83;;;1.73;;
13807;SDS011;40769;51.512;5.494;2023-02-18T05:23:54;1.60;;;1.50;;
13807;SDS011;40769;51.512;5.494;2023-02-18T05:26:20;2.10;;;2.00;;
13807;SDS011;40769;51.512;5.494;2023-02-18T05:28:46;1.85;;;1.75;;
13807;SDS011;40769;51.512;5.494;2023-02-18T05:31:11;1.73;;;1.63;;
13807;SDS011;40769;51.512;5.494;2023-02-18T05:33:37;1.90;;;1.80;;
13807;SDS011;40769;51.512;5.494;2023-02-18T05:36:03;1.63;;;1.52;;
13807;SDS011;40769;51.512;5.494;2023-02-18T05:38:29;1.73;;;1.63;;
13807;SDS011;40769;51.512;5.494;2023-02-18T05:40:55;1.58;;;1.48;;
13807;SDS011;40769;51.512;5.494;2023-02-18T05:43:20;2.13;;;2.03;;
13807;SDS011;40769;51.512;5.494;2023-02-18T05:45:46;1.75;;;1.65;;
13807;SDS011;40769;51.512;5.494;2023-02-18T05:48:12;1.42;;;1.33;;
13807;SDS011;40769;51.512;5.494;2023-02-18T05:50:37;2.35;;;2.15;;
13807;SDS011;40769;51.512;5.494;2023-02-18T05:53:03;2.03;;;1.92;;
13807;SDS011;40769;51.512;5.494;2023-02-18T05:55:29;2.50;;;2.30;;
13807;SDS011;40769;51.512;5.494;2023-02-18T05:57:55;2.10;;;2.00;;
13807;SDS011;40769;51.512;5.494;2023-02-18T06:00:20;2.03;;;1.92;;
13807;SDS011;40769;51.512;5.494;2023-02-18T06:02:46;2.53;;;2.33;;
13807;SDS011;40769;51.512;5.494;2023-02-18T06:05:12;2.75;;;2.50;;
13807;SDS011;40769;51.512;5.494;2023-02-18T06:07:39;2.63;;;2.42;;
13807;SDS011;40769;51.512;5.494;2023-02-18T06:10:05;3.20;;;3.00;;
13807;SDS011;40769;51.512;5.494;2023-02-18T06:12:31;2.90;;;2.70;;
13807;SDS011;40769;51.512;5.494;2023-02-18T06:14:57;3.15;;;2.95;;
13807;SDS011;40769;51.512;5.494;2023-02-18T06:17:23;2.65;;;2.45;;
13807;SDS011;40769;51.512;5.494;2023-02-18T06:19:48;3.17;;;2.88;;
13807;SDS011;40769;51.512;5.494;2023-02-18T06:22:14;3.55;;;3.25;;
13807;SDS011;40769;51.512;5.494;2023-02-18T06:24:40;3.22;;;3.03;;
13807;SDS011;40769;51.512;5.494;2023-02-18T06:27:05;3.00;;;2.70;;
13807;SDS011;40769;51.512;5.494;2023-02-18T06:29:31;3.40;;;3.15;;
13807;SDS011;40769;51.512;5.494;2023-02-18T06:31:57;4.00;;;3.70;;
13807;SDS011;40769;51.512;5.494;2023-02-18T06:34:24;4.60;;;4.20;;
13807;SDS011;40769;51.512;5.494;2023-02-18T06:36:51;4.78;;;4.38;;
13807;SDS011;40769;51.512;5.494;2023-02-18T06:39:16;4.80;;;4.40;;
13807;SDS011;40769;51.512;5.494;2023-02-18T06:41:42;5.25;;;4.85;;
13807;SDS011;40769;51.512;5.494;2023-02-18T06:44:08;4.75;;;4.35;;
13807;SDS011;40769;51.512;5.494;2023-02-18T06:46:35;5.60;;;5.10;;
13807;SDS011;40769;51.512;5.494;2023-02-18T06:49:01;5.18;;;4.78;;
13807;SDS011;40769;51.512;5.494;2023-02-18T06:51:27;6.68;;;6.13;;
13807;SDS011;40769;51.512;5.494;2023-02-18T06:53:52;5.82;;;5.32;;
13807;SDS011;40769;51.512;5.494;2023-02-18T06:56:18;6.00;;;5.50;;
13807;SDS011;40769;51.512;5.494;2023-02-18T06:58:43;6.30;;;5.80;;
13807;SDS011;40769;51.512;5.494;2023-02-18T07:01:09;5.13;;;4.72;;
13807;SDS011;40769;51.512;5.494;2023-02-18T07:03:35;5.55;;;5.15;;
13807;SDS011;40769;51.512;5.494;2023-02-18T07:06:00;5.40;;;5.00;;
13807;SDS011;40769;51.512;5.494;2023-02-18T07:08:26;5.93;;;5.53;;
13807;SDS011;40769;51.512;5.494;2023-02-18T07:10:52;7.82;;;7.22;;
13807;SDS011;40769;51.512;5.494;2023-02-18T07:13:17;8.65;;;7.90;;
13807;SDS011;40769;51.512;5.494;2023-02-18T07:15:43;7.20;;;6.60;;
13807;SDS011;40769;51.512;5.494;2023-02-18T07:18:09;6.53;;;6.00;;
13807;SDS011;40769;51.512;5.494;2023-02-18T07:20:34;5.97;;;5.47;;
13807;SDS011;40769;51.512;5.494;2023-02-18T07:23:00;6.07;;;5.57;;
13807;SDS011;40769;51.512;5.494;2023-02-18T07:25:26;5.13;;;4.72;;
13807;SDS011;40769;51.512;5.494;2023-02-18T07:27:51;6.05;;;5.55;;
13807;SDS011;40769;51.512;5.494;2023-02-18T07:30:18;7.07;;;6.47;;
13807;SDS011;40769;51.512;5.494;2023-02-18T07:32:44;6.50;;;6.00;;
13807;SDS011;40769;51.512;5.494;2023-02-18T07:35:10;7.15;;;6.53;;
13807;SDS011;40769;51.512;5.494;2023-02-18T07:37:41;7.20;;;6.60;;
13807;SDS011;40769;51.512;5.494;2023-02-18T07:40:08;6.47;;;5.97;;
13807;SDS011;40769;51.512;5.494;2023-02-18T07:42:36;7.05;;;6.43;;
13807;SDS011;40769;51.512;5.494;2023-02-18T07:45:02;6.97;;;6.28;;
13807;SDS011;40769;51.512;5.494;2023-02-18T07:47:28;7.45;;;6.35;;
13807;SDS011;40769;51.512;5.494;2023-02-18T07:49:53;6.45;;;5.85;;
13807;SDS011;40769;51.512;5.494;2023-02-18T07:52:19;6.03;;;5.50;;
13807;SDS011;40769;51.512;5.494;2023-02-18T07:54:45;5.30;;;4.80;;
13807;SDS011;40769;51.512;5.494;2023-02-18T07:57:10;5.97;;;5.40;;
13807;SDS011;40769;51.512;5.494;2023-02-18T07:59:36;5.80;;;5.22;;
13807;SDS011;40769;51.512;5.494;2023-02-18T08:02:02;6.38;;;5.32;;
13807;SDS011;40769;51.512;5.494;2023-02-18T08:04:29;6.20;;;5.60;;
13807;SDS011;40769;51.512;5.494;2023-02-18T08:06:55;6.28;;;5.60;;
13807;SDS011;40769;51.512;5.494;2023-02-18T08:09:20;6.72;;;5.68;;
13807;SDS011;40769;51.512;5.494;2023-02-18T08:11:46;7.40;;;5.90;;
13807;SDS011;40769;51.512;5.494;2023-02-18T08:14:12;6.03;;;5.43;;
13807;SDS011;40769;51.512;5.494;2023-02-18T08:16:38;8.00;;;6.38;;
13807;SDS011;40769;51.512;5.494;2023-02-18T08:19:04;7.07;;;6.00;;
13807;SDS011;40769;51.512;5.494;2023-02-18T08:21:30;7.28;;;5.95;;
13807;SDS011;40769;51.512;5.494;2023-02-18T08:23:56;6.85;;;6.15;;
13807;SDS011;40769;51.512;5.494;2023-02-18T08:26:22;7.80;;;7.10;;
13807;SDS011;40769;51.512;5.494;2023-02-18T08:28:48;8.10;;;6.85;;
13807;SDS011;40769;51.512;5.494;2023-02-18T08:31:16;9.68;;;6.90;;
13807;SDS011;40769;51.512;5.494;2023-02-18T08:33:45;8.13;;;6.35;;
13807;SDS011;40769;51.512;5.494;2023-02-18T08:36:12;7.88;;;5.80;;
13807;SDS011;40769;51.512;5.494;2023-02-18T08:38:37;7.45;;;5.78;;
13807;SDS011;40769;51.512;5.494;2023-02-18T08:41:04;8.65;;;5.32;;
13807;SDS011;40769;51.512;5.494;2023-02-18T08:43:31;6.32;;;5.28;;
13807;SDS011;40769;51.512;5.494;2023-02-18T08:45:57;6.43;;;5.40;;
13807;SDS011;40769;51.512;5.494;2023-02-18T08:48:23;6.18;;;4.97;;
13807;SDS011;40769;51.512;5.494;2023-02-18T08:50:49;7.65;;;5.03;;
13807;SDS011;40769;51.512;5.494;2023-02-18T08:53:15;5.68;;;4.28;;
13807;SDS011;40769;51.512;5.494;2023-02-18T08:55:41;8.18;;;4.82;;
13807;SDS011;40769;51.512;5.494;2023-02-18T08:58:07;8.18;;;5.03;;
13807;SDS011;40769;51.512;5.494;2023-02-18T09:00:33;6.07;;;4.70;;
13807;SDS011;40769;51.512;5.494;2023-02-18T09:02:59;7.50;;;4.80;;
13807;SDS011;40769;51.512;5.494;2023-02-18T09:05:25;8.65;;;4.90;;
13807;SDS011;40769;51.512;5.494;2023-02-18T09:07:51;6.35;;;4.22;;
13807;SDS011;40769;51.512;5.494;2023-02-18T09:10:16;9.90;;;5.00;;
13807;SDS011;40769;51.512;5.494;2023-02-18T09:12:42;4.43;;;3.50;;
13807;SDS011;40769;51.512;5.494;2023-02-18T09:15:08;6.10;;;4.05;;
13807;SDS011;40769;51.512;5.494;2023-02-18T09:17:34;6.25;;;4.78;;
13807;SDS011;40769;51.512;5.494;2023-02-18T09:20:00;5.82;;;3.78;;
13807;SDS011;40769;51.512;5.494;2023-02-18T09:22:26;6.60;;;4.03;;
13807;SDS011;40769;51.512;5.494;2023-02-18T09:24:51;7.45;;;4.53;;
13807;SDS011;40769;51.512;5.494;2023-02-18T09:27:17;5.18;;;3.67;;
13807;SDS011;40769;51.512;5.494;2023-02-18T09:29:43;7.13;;;3.75;;
13807;SDS011;40769;51.512;5.494;2023-02-18T09:32:09;4.97;;;3.17;;
13807;SDS011;40769;51.512;5.494;2023-02-18T09:34:36;5.38;;;2.88;;
13807;SDS011;40769;51.512;5.494;2023-02-18T09:37:02;3.85;;;3.42;;
13807;SDS011;40769;51.512;5.494;2023-02-18T09:39:28;6.13;;;3.67;;
13807;SDS011;40769;51.512;5.494;2023-02-18T09:41:54;5.25;;;3.38;;
13807;SDS011;40769;51.512;5.494;2023-02-18T09:49:57;6.15;;;2.83;;
13807;SDS011;40769;51.512;5.494;2023-02-18T09:52:40;5.05;;;3.28;;
13807;SDS011;40769;51.512;5.494;2023-02-18T09:55:23;5.47;;;3.10;;
13807;SDS011;40769;51.512;5.494;2023-02-18T09:58:03;4.15;;;2.75;;
13807;SDS011;40769;51.512;5.494;2023-02-18T10:00:36;4.90;;;2.80;;
13807;SDS011;40769;51.512;5.494;2023-02-18T10:03:05;3.13;;;2.22;;
13807;SDS011;40769;51.512;5.494;2023-02-18T10:05:36;4.75;;;2.70;;
13807;SDS011;40769;51.512;5.494;2023-02-18T10:08:11;3.50;;;2.70;;
13807;SDS011;40769;51.512;5.494;2023-02-18T10:10:51;5.47;;;3.10;;
13807;SDS011;40769;51.512;5.494;2023-02-18T10:13:17;4.75;;;2.90;;
13807;SDS011;40769;51.512;5.494;2023-02-18T10:15:46;4.45;;;2.75;;
13807;SDS011;40769;51.512;5.494;2023-02-18T10:18:20;5.15;;;2.95;;
13807;SDS011;40769;51.512;5.494;2023-02-18T10:20:51;4.75;;;3.08;;
13807;SDS011;40769;51.512;5.494;2023-02-18T10:23:20;4.95;;;3.13;;
13807;SDS011;40769;51.512;5.494;2023-02-18T10:25:47;4.78;;;3.30;;
13807;SDS011;40769;51.512;5.494;2023-02-18T10:28:14;5.45;;;3.20;;
13807;SDS011;40769;51.512;5.494;2023-02-18T10:30:41;4.88;;;3.35;;
13807;SDS011;40769;51.512;5.494;2023-02-18T10:33:16;6.78;;;3.55;;
13807;SDS011;40769;51.512;5.494;2023-02-18T10:39:10;3.58;;;2.97;;
13807;SDS011;40769;51.512;5.494;2023-02-18T10:47:44;5.13;;;3.88;;
13807;SDS011;40769;51.512;5.494;2023-02-18T10:50:28;6.00;;;3.72;;
13807;SDS011;40769;51.512;5.494;2023-02-18T10:53:00;4.53;;;3.50;;
13807;SDS011;40769;51.512;5.494;2023-02-18T10:55:36;4.30;;;3.90;;
13807;SDS011;40769;51.512;5.494;2023-02-18T10:58:09;4.05;;;3.33;;
13807;SDS011;40769;51.512;5.494;2023-02-18T11:00:53;5.35;;;4.15;;
13807;SDS011;40769;51.512;5.494;2023-02-18T11:03:21;4.88;;;3.80;;
13807;SDS011;40769;51.512;5.494;2023-02-18T11:05:52;6.20;;;3.75;;
13807;SDS011;40769;51.512;5.494;2023-02-18T11:08:21;4.38;;;3.63;;
13807;SDS011;40769;51.512;5.494;2023-02-18T11:10:52;4.38;;;3.70;;
13807;SDS011;40769;51.512;5.494;2023-02-18T11:13:28;4.03;;;3.20;;
13807;SDS011;40769;51.512;5.494;2023-02-18T11:16:04;6.25;;;3.15;;
13807;SDS011;40769;51.512;5.494;2023-02-18T11:18:34;4.05;;;3.65;;
13807;SDS011;40769;51.512;5.494;2023-02-18T11:21:49;7.25;;;3.60;;
13807;SDS011;40769;51.512;5.494;2023-02-18T11:24:05;4.75;;;3.58;;
13807;SDS011;40769;51.512;5.494;2023-02-18T11:26:34;4.53;;;3.45;;
13807;SDS011;40769;51.512;5.494;2023-02-18T11:29:22;4.22;;;3.10;;
13807;SDS011;40769;51.512;5.494;2023-02-18T11:31:48;5.25;;;3.47;;
13807;SDS011;40769;51.512;5.494;2023-02-18T11:34:19;3.95;;;3.55;;
13807;SDS011;40769;51.512;5.494;2023-02-18T11:36:47;4.20;;;3.45;;
13807;SDS011;40769;51.512;5.494;2023-02-18T11:39:19;6.15;;;3.95;;
13807;SDS011;40769;51.512;5.494;2023-02-18T11:41:55;5.18;;;3.47;;
13807;SDS011;40769;51.512;5.494;2023-02-18T11:49:28;3.53;;;2.90;;
13807;SDS011;40769;51.512;5.494;2023-02-18T11:52:02;3.40;;;3.08;;
13807;SDS011;40769;51.512;5.494;2023-02-18T11:54:38;5.93;;;3.47;;
13807;SDS011;40769;51.512;5.494;2023-02-18T11:57:05;4.07;;;3.25;;
13807;SDS011;40769;51.512;5.494;2023-02-18T11:59:36;5.18;;;3.45;;
13807;SDS011;40769;51.512;5.494;2023-02-18T12:04:42;3.80;;;3.08;;
13807;SDS011;40769;51.512;5.494;2023-02-18T12:10:02;6.32;;;3.47;;
13807;SDS011;40769;51.512;5.494;2023-02-18T12:12:36;3.42;;;3.00;;
13807;SDS011;40769;51.512;5.494;2023-02-18T12:15:11;3.38;;;2.60;;
13807;SDS011;40769;51.512;5.494;2023-02-18T12:20:25;3.65;;;3.30;;
13807;SDS011;40769;51.512;5.494;2023-02-18T12:23:00;5.47;;;3.72;;
13807;SDS011;40769;51.512;5.494;2023-02-18T12:28:37;3.42;;;2.88;;
13807;SDS011;40769;51.512;5.494;2023-02-18T12:57:45;3.03;;;2.72;;
13807;SDS011;40769;51.512;5.494;2023-02-18T13:14:03;3.15;;;2.65;;
13807;SDS011;40769;51.512;5.494;2023-02-18T13:16:51;3.63;;;2.95;;
13807;SDS011;40769;51.512;5.494;2023-02-18T13:19:23;2.83;;;2.50;;
13807;SDS011;40769;51.512;5.494;2023-02-18T13:21:59;3.35;;;2.70;;
13807;SDS011;40769;51.512;5.494;2023-02-18T13:24:37;3.30;;;3.00;;
13807;SDS011;40769;51.512;5.494;2023-02-18T13:27:12;3.15;;;2.80;;
13807;SDS011;40769;51.512;5.494;2023-02-18T13:32:35;3.83;;;2.88;;
13807;SDS011;40769;51.512;5.494;2023-02-18T13:40:41;3.30;;;2.60;;
13807;SDS011;40769;51.512;5.494;2023-02-18T13:43:17;4.38;;;3.03;;
13807;SDS011;40769;51.512;5.494;2023-02-18T13:52:00;5.40;;;2.72;;
13807;SDS011;40769;51.512;5.494;2023-02-18T13:54:49;3.60;;;2.40;;
13807;SDS011;40769;51.512;5.494;2023-02-18T13:57:03;3.50;;;2.60;;
13807;SDS011;40769;51.512;5.494;2023-02-18T14:28:51;3.22;;;2.30;;
13807;SDS011;40769;51.512;5.494;2023-02-18T14:33:51;4.38;;;3.30;;
13807;SDS011;40769;51.512;5.494;2023-02-18T14:49:55;2.38;;;2.17;;
13807;SDS011;40769;51.512;5.494;2023-02-18T14:52:31;2.58;;;2.38;;
13807;SDS011;40769;51.512;5.494;2023-02-18T14:55:02;3.65;;;2.42;;
13807;SDS011;40769;51.512;5.494;2023-02-18T14:58:28;3.97;;;2.00;;
13807;SDS011;40769;51.512;5.494;2023-02-18T15:00:26;2.70;;;2.10;;
13807;SDS011;40769;51.512;5.494;2023-02-18T15:02:56;2.80;;;2.03;;
13807;SDS011;40769;51.512;5.494;2023-02-18T15:05:24;2.65;;;2.03;;
13807;SDS011;40769;51.512;5.494;2023-02-18T15:07:54;3.55;;;2.20;;
13807;SDS011;40769;51.512;5.494;2023-02-18T15:10:21;3.97;;;2.30;;
13807;SDS011;40769;51.512;5.494;2023-02-18T15:12:50;2.20;;;2.03;;
13807;SDS011;40769;51.512;5.494;2023-02-18T15:15:22;2.17;;;1.85;;
13807;SDS011;40769;51.512;5.494;2023-02-18T15:17:49;2.60;;;1.50;;
13807;SDS011;40769;51.512;5.494;2023-02-18T15:20:15;2.17;;;1.63;;
13807;SDS011;40769;51.512;5.494;2023-02-18T15:22:41;4.53;;;2.10;;
13807;SDS011;40769;51.512;5.494;2023-02-18T15:25:09;3.35;;;1.90;;
13807;SDS011;40769;51.512;5.494;2023-02-18T15:27:37;2.47;;;1.92;;
13807;SDS011;40769;51.512;5.494;2023-02-18T15:30:25;2.92;;;2.00;;
13807;SDS011;40769;51.512;5.494;2023-02-18T15:32:58;2.75;;;1.70;;
13807;SDS011;40769;51.512;5.494;2023-02-18T15:35:27;3.25;;;2.03;;
13807;SDS011;40769;51.512;5.494;2023-02-18T15:37:56;2.92;;;1.30;;
13807;SDS011;40769;51.512;5.494;2023-02-18T15:40:24;3.50;;;2.08;;
13807;SDS011;40769;51.512;5.494;2023-02-18T15:42:55;4.35;;;2.17;;
13807;SDS011;40769;51.512;5.494;2023-02-18T15:45:24;3.47;;;2.53;;
13807;SDS011;40769;51.512;5.494;2023-02-18T15:47:58;4.22;;;2.42;;
13807;SDS011;40769;51.512;5.494;2023-02-18T15:50:26;2.67;;;2.13;;
13807;SDS011;40769;51.512;5.494;2023-02-18T15:52:53;3.38;;;2.50;;
13807;SDS011;40769;51.512;5.494;2023-02-18T15:55:31;2.97;;;2.28;;
13807;SDS011;40769;51.512;5.494;2023-02-18T15:58:00;4.03;;;2.50;;
13807;SDS011;40769;51.512;5.494;2023-02-18T16:00:29;3.10;;;2.20;;
13807;SDS011;40769;51.512;5.494;2023-02-18T16:03:12;3.55;;;2.40;;
13807;SDS011;40769;51.512;5.494;2023-02-18T16:05:43;2.45;;;2.25;;
13807;SDS011;40769;51.512;5.494;2023-02-18T16:10:56;4.35;;;3.50;;
13807;SDS011;40769;51.512;5.494;2023-02-18T16:13:32;4.07;;;3.08;;
13807;SDS011;40769;51.512;5.494;2023-02-18T16:15:59;4.05;;;3.65;;
13807;SDS011;40769;51.512;5.494;2023-02-18T16:21:03;4.85;;;4.40;;
13807;SDS011;40769;51.512;5.494;2023-02-18T16:23:42;5.53;;;4.97;;
13807;SDS011;40769;51.512;5.494;2023-02-18T16:26:30;5.88;;;5.38;;
13807;SDS011;40769;51.512;5.494;2023-02-18T16:29:19;7.05;;;6.45;;
13807;SDS011;40769;51.512;5.494;2023-02-18T16:31:45;7.10;;;6.50;;
13807;SDS011;40769;51.512;5.494;2023-02-18T16:34:12;7.50;;;6.80;;
13807;SDS011;40769;51.512;5.494;2023-02-18T16:36:37;8.98;;;8.15;;
13807;SDS011;40769;51.512;5.494;2023-02-18T16:39:23;8.00;;;7.28;;
13807;SDS011;40769;51.512;5.494;2023-02-18T16:41:49;8.32;;;7.63;;
13807;SDS011;40769;51.512;5.494;2023-02-18T16:44:14;9.25;;;8.45;;
13807;SDS011;40769;51.512;5.494;2023-02-18T16:46:40;9.80;;;8.90;;
13807;SDS011;40769;51.512;5.494;2023-02-18T16:49:07;10.38;;;9.48;;
13807;SDS011;40769;51.512;5.494;2023-02-18T16:51:36;11.40;;;10.25;;
13807;SDS011;40769;51.512;5.494;2023-02-18T16:54:02;10.05;;;9.13;;
13807;SDS011;40769;51.512;5.494;2023-02-18T16:56:32;12.38;;;11.27;;
13807;SDS011;40769;51.512;5.494;2023-02-18T16:58:59;14.07;;;12.98;;
13807;SDS011;40769;51.512;5.494;2023-02-18T17:04:05;12.27;;;11.27;;
13807;SDS011;40769;51.512;5.494;2023-02-18T17:06:34;12.50;;;11.43;;
13807;SDS011;40769;51.512;5.494;2023-02-18T17:09:00;15.70;;;14.30;;
13807;SDS011;40769;51.512;5.494;2023-02-18T17:11:31;16.23;;;14.82;;
13807;SDS011;40769;51.512;5.494;2023-02-18T17:13:58;16.65;;;15.15;;
13807;SDS011;40769;51.512;5.494;2023-02-18T17:16:24;15.52;;;14.27;;
13807;SDS011;40769;51.512;5.494;2023-02-18T17:18:50;15.40;;;14.00;;
13807;SDS011;40769;51.512;5.494;2023-02-18T17:21:18;14.73;;;13.48;;
13807;SDS011;40769;51.512;5.494;2023-02-18T17:23:45;13.00;;;11.90;;
13807;SDS011;40769;51.512;5.494;2023-02-18T17:26:22;12.20;;;11.10;;
13807;SDS011;40769;51.512;5.494;2023-02-18T17:28:49;12.25;;;11.15;;
13807;SDS011;40769;51.512;5.494;2023-02-18T17:31:17;15.27;;;13.88;;
13807;SDS011;40769;51.512;5.494;2023-02-18T17:33:47;15.93;;;14.43;;
13807;SDS011;40769;51.512;5.494;2023-02-18T17:36:12;16.17;;;14.77;;
13807;SDS011;40769;51.512;5.494;2023-02-18T17:38:38;15.05;;;13.55;;
13807;SDS011;40769;51.512;5.494;2023-02-18T17:41:04;13.75;;;12.63;;
13807;SDS011;40769;51.512;5.494;2023-02-18T17:43:31;16.08;;;14.55;;
13807;SDS011;40769;51.512;5.494;2023-02-18T17:45:56;16.33;;;14.73;;
13807;SDS011;40769;51.512;5.494;2023-02-18T17:48:22;15.25;;;13.95;;
13807;SDS011;40769;51.512;5.494;2023-02-18T17:50:49;15.18;;;13.68;;